Terminal Aerodrome Forecast
Issued by NWS Grand Forks, ND

Home | Current Version | Previous Version | Text Only | Print | Product List | Glossary On
Versions: 1 2 3 4 5 6 7 8 9 10 11 12 13 14 15
000
FTUS43 KFGF 181739
TAFFAR
TAF
KFAR 181739Z 1818/1918 02017G26KT 2SM -SN BLSN BKN015 OVC035
     FM182000 36017G25KT 4SM BLSN BKN015 OVC035
     FM190100 36013KT P6SM BKN035
     FM190900 01009KT P6SM BKN050=

USA.gov is the U.S. government's official web portal to all federal, state and local government web resources and services.